sensor_id;sensor_type;location;lat;lon;timestamp;P1;durP1;ratioP1;P2;durP2;ratioP2
22922;SDS011;11627;51.322;22.816;2023-07-31T00:00:04;7.78;;;5.15;;
22922;SDS011;11627;51.322;22.816;2023-07-31T00:02:31;5.35;;;4.72;;
22922;SDS011;11627;51.322;22.816;2023-07-31T00:04:58;6.43;;;5.13;;
22922;SDS011;11627;51.322;22.816;2023-07-31T00:07:25;5.95;;;4.93;;
22922;SDS011;11627;51.322;22.816;2023-07-31T00:09:52;6.00;;;5.07;;
22922;SDS011;11627;51.322;22.816;2023-07-31T00:12:20;6.72;;;5.25;;
22922;SDS011;11627;51.322;22.816;2023-07-31T00:14:47;7.20;;;4.75;;
22922;SDS011;11627;51.322;22.816;2023-07-31T00:17:14;5.72;;;4.90;;
22922;SDS011;11627;51.322;22.816;2023-07-31T00:19:41;6.80;;;5.00;;
22922;SDS011;11627;51.322;22.816;2023-07-31T00:22:08;5.72;;;5.13;;
22922;SDS011;11627;51.322;22.816;2023-07-31T00:24:35;8.55;;;5.43;;
22922;SDS011;11627;51.322;22.816;2023-07-31T00:27:02;10.20;;;5.35;;
22922;SDS011;11627;51.322;22.816;2023-07-31T00:29:29;7.13;;;5.38;;
22922;SDS011;11627;51.322;22.816;2023-07-31T00:31:56;7.30;;;5.35;;
22922;SDS011;11627;51.322;22.816;2023-07-31T00:34:23;7.00;;;5.22;;
22922;SDS011;11627;51.322;22.816;2023-07-31T00:36:49;7.78;;;6.50;;
22922;SDS011;11627;51.322;22.816;2023-07-31T00:39:16;6.30;;;5.25;;
22922;SDS011;11627;51.322;22.816;2023-07-31T00:41:43;12.23;;;5.50;;
22922;SDS011;11627;51.322;22.816;2023-07-31T00:44:10;7.18;;;5.45;;
22922;SDS011;11627;51.322;22.816;2023-07-31T00:46:39;9.48;;;5.13;;
22922;SDS011;11627;51.322;22.816;2023-07-31T00:49:06;7.32;;;5.45;;
22922;SDS011;11627;51.322;22.816;2023-07-31T00:51:34;5.82;;;5.13;;
22922;SDS011;11627;51.322;22.816;2023-07-31T00:54:01;9.20;;;5.20;;
22922;SDS011;11627;51.322;22.816;2023-07-31T00:56:29;6.75;;;5.13;;
22922;SDS011;11627;51.322;22.816;2023-07-31T00:58:56;7.30;;;5.40;;
22922;SDS011;11627;51.322;22.816;2023-07-31T01:01:24;7.32;;;5.20;;
22922;SDS011;11627;51.322;22.816;2023-07-31T01:03:51;6.53;;;5.25;;
22922;SDS011;11627;51.322;22.816;2023-07-31T01:09:37;5.95;;;4.80;;
22922;SDS011;11627;51.322;22.816;2023-07-31T01:12:13;6.03;;;5.20;;
22922;SDS011;11627;51.322;22.816;2023-07-31T01:17:38;8.07;;;5.00;;
22922;SDS011;11627;51.322;22.816;2023-07-31T01:20:06;8.75;;;5.13;;
22922;SDS011;11627;51.322;22.816;2023-07-31T01:31:53;8.48;;;5.22;;
22922;SDS011;11627;51.322;22.816;2023-07-31T01:34:21;7.25;;;5.15;;
22922;SDS011;11627;51.322;22.816;2023-07-31T01:36:48;6.07;;;5.00;;
22922;SDS011;11627;51.322;22.816;2023-07-31T01:39:16;7.95;;;4.70;;
22922;SDS011;11627;51.322;22.816;2023-07-31T01:41:43;6.75;;;4.80;;
22922;SDS011;11627;51.322;22.816;2023-07-31T01:44:10;6.53;;;4.82;;
22922;SDS011;11627;51.322;22.816;2023-07-31T01:46:37;6.00;;;4.45;;
22922;SDS011;11627;51.322;22.816;2023-07-31T01:49:05;7.32;;;5.35;;
22922;SDS011;11627;51.322;22.816;2023-07-31T01:51:32;6.15;;;4.65;;
22922;SDS011;11627;51.322;22.816;2023-07-31T01:54:00;6.10;;;5.00;;
22922;SDS011;11627;51.322;22.816;2023-07-31T01:56:28;5.90;;;4.75;;
22922;SDS011;11627;51.322;22.816;2023-07-31T01:58:55;5.32;;;4.82;;
22922;SDS011;11627;51.322;22.816;2023-07-31T02:01:22;5.18;;;4.68;;
22922;SDS011;11627;51.322;22.816;2023-07-31T02:03:49;7.20;;;5.20;;
22922;SDS011;11627;51.322;22.816;2023-07-31T02:06:16;7.50;;;5.22;;
22922;SDS011;11627;51.322;22.816;2023-07-31T02:08:43;6.75;;;4.78;;
22922;SDS011;11627;51.322;22.816;2023-07-31T02:11:10;7.03;;;5.18;;
22922;SDS011;11627;51.322;22.816;2023-07-31T02:13:37;5.90;;;4.75;;
22922;SDS011;11627;51.322;22.816;2023-07-31T02:16:04;8.88;;;5.50;;
22922;SDS011;11627;51.322;22.816;2023-07-31T02:18:31;6.00;;;5.10;;
22922;SDS011;11627;51.322;22.816;2023-07-31T02:20:58;6.43;;;4.80;;
22922;SDS011;11627;51.322;22.816;2023-07-31T02:23:25;5.78;;;5.00;;
22922;SDS011;11627;51.322;22.816;2023-07-31T02:25:52;5.43;;;4.47;;
22922;SDS011;11627;51.322;22.816;2023-07-31T02:28:19;6.10;;;4.90;;
22922;SDS011;11627;51.322;22.816;2023-07-31T02:30:45;8.45;;;4.88;;
22922;SDS011;11627;51.322;22.816;2023-07-31T02:33:13;5.90;;;4.75;;
22922;SDS011;11627;51.322;22.816;2023-07-31T02:35:41;7.07;;;4.88;;
22922;SDS011;11627;51.322;22.816;2023-07-31T02:38:09;8.27;;;4.80;;
22922;SDS011;11627;51.322;22.816;2023-07-31T02:40:36;8.32;;;5.25;;
22922;SDS011;11627;51.322;22.816;2023-07-31T02:43:03;5.82;;;5.10;;
22922;SDS011;11627;51.322;22.816;2023-07-31T02:45:30;7.78;;;5.15;;
22922;SDS011;11627;51.322;22.816;2023-07-31T02:47:57;11.10;;;4.97;;
22922;SDS011;11627;51.322;22.816;2023-07-31T02:50:23;5.65;;;5.07;;
22922;SDS011;11627;51.322;22.816;2023-07-31T02:52:50;6.43;;;4.78;;
22922;SDS011;11627;51.322;22.816;2023-07-31T02:55:16;7.72;;;5.28;;
22922;SDS011;11627;51.322;22.816;2023-07-31T02:57:43;5.32;;;4.78;;
22922;SDS011;11627;51.322;22.816;2023-07-31T03:00:09;9.32;;;4.38;;
22922;SDS011;11627;51.322;22.816;2023-07-31T03:02:36;7.25;;;4.65;;
22922;SDS011;11627;51.322;22.816;2023-07-31T03:05:03;6.55;;;4.82;;
22922;SDS011;11627;51.322;22.816;2023-07-31T03:07:29;6.13;;;5.03;;
22922;SDS011;11627;51.322;22.816;2023-07-31T03:09:57;5.50;;;4.78;;
22922;SDS011;11627;51.322;22.816;2023-07-31T03:12:24;6.70;;;4.85;;
22922;SDS011;11627;51.322;22.816;2023-07-31T03:14:52;7.18;;;4.97;;
22922;SDS011;11627;51.322;22.816;2023-07-31T03:17:19;5.78;;;4.47;;
22922;SDS011;11627;51.322;22.816;2023-07-31T03:19:47;9.70;;;4.68;;
22922;SDS011;11627;51.322;22.816;2023-07-31T03:22:14;4.82;;;4.32;;
22922;SDS011;11627;51.322;22.816;2023-07-31T03:24:42;6.57;;;4.80;;
22922;SDS011;11627;51.322;22.816;2023-07-31T03:27:09;5.53;;;4.70;;
22922;SDS011;11627;51.322;22.816;2023-07-31T03:29:36;8.88;;;5.05;;
22922;SDS011;11627;51.322;22.816;2023-07-31T03:32:03;5.05;;;4.55;;
22922;SDS011;11627;51.322;22.816;2023-07-31T03:34:30;13.38;;;4.85;;
22922;SDS011;11627;51.322;22.816;2023-07-31T03:36:58;8.30;;;4.63;;
22922;SDS011;11627;51.322;22.816;2023-07-31T03:39:25;5.75;;;4.70;;
22922;SDS011;11627;51.322;22.816;2023-07-31T03:41:52;6.45;;;4.93;;
22922;SDS011;11627;51.322;22.816;2023-07-31T03:44:19;6.75;;;4.53;;
22922;SDS011;11627;51.322;22.816;2023-07-31T03:46:46;6.90;;;4.63;;
22922;SDS011;11627;51.322;22.816;2023-07-31T03:49:13;6.15;;;4.40;;
22922;SDS011;11627;51.322;22.816;2023-07-31T03:51:39;5.38;;;4.88;;
22922;SDS011;11627;51.322;22.816;2023-07-31T03:54:08;6.80;;;4.65;;
22922;SDS011;11627;51.322;22.816;2023-07-31T03:56:35;5.75;;;4.60;;
22922;SDS011;11627;51.322;22.816;2023-07-31T03:59:04;6.05;;;4.82;;
22922;SDS011;11627;51.322;22.816;2023-07-31T04:01:31;7.05;;;4.32;;
22922;SDS011;11627;51.322;22.816;2023-07-31T04:03:58;6.15;;;4.63;;
22922;SDS011;11627;51.322;22.816;2023-07-31T04:06:26;6.70;;;4.28;;
22922;SDS011;11627;51.322;22.816;2023-07-31T04:08:53;4.88;;;4.38;;
22922;SDS011;11627;51.322;22.816;2023-07-31T04:11:20;4.75;;;4.15;;
22922;SDS011;11627;51.322;22.816;2023-07-31T04:13:47;7.03;;;4.40;;
22922;SDS011;11627;51.322;22.816;2023-07-31T04:16:14;8.98;;;4.20;;
22922;SDS011;11627;51.322;22.816;2023-07-31T04:18:41;4.32;;;3.92;;
22922;SDS011;11627;51.322;22.816;2023-07-31T04:21:08;8.80;;;4.50;;
22922;SDS011;11627;51.322;22.816;2023-07-31T04:23:36;5.80;;;4.55;;
22922;SDS011;11627;51.322;22.816;2023-07-31T04:26:03;5.35;;;4.43;;
22922;SDS011;11627;51.322;22.816;2023-07-31T04:28:30;4.80;;;4.30;;
22922;SDS011;11627;51.322;22.816;2023-07-31T04:30:58;6.40;;;4.65;;
22922;SDS011;11627;51.322;22.816;2023-07-31T04:33:25;7.47;;;4.18;;
22922;SDS011;11627;51.322;22.816;2023-07-31T04:35:55;4.95;;;4.10;;
22922;SDS011;11627;51.322;22.816;2023-07-31T04:38:22;9.80;;;4.40;;
22922;SDS011;11627;51.322;22.816;2023-07-31T04:40:49;6.78;;;4.05;;
22922;SDS011;11627;51.322;22.816;2023-07-31T04:43:16;5.18;;;4.50;;
22922;SDS011;11627;51.322;22.816;2023-07-31T04:45:46;9.30;;;4.80;;
22922;SDS011;11627;51.322;22.816;2023-07-31T04:48:16;7.15;;;4.05;;
22922;SDS011;11627;51.322;22.816;2023-07-31T04:50:44;6.18;;;4.90;;
22922;SDS011;11627;51.322;22.816;2023-07-31T04:53:11;6.70;;;4.32;;
22922;SDS011;11627;51.322;22.816;2023-07-31T04:55:40;4.88;;;4.40;;
22922;SDS011;11627;51.322;22.816;2023-07-31T04:58:07;8.18;;;4.68;;
22922;SDS011;11627;51.322;22.816;2023-07-31T05:00:34;8.63;;;4.78;;
22922;SDS011;11627;51.322;22.816;2023-07-31T05:03:01;6.13;;;5.05;;
22922;SDS011;11627;51.322;22.816;2023-07-31T05:05:31;5.65;;;5.00;;
22922;SDS011;11627;51.322;22.816;2023-07-31T05:07:57;8.65;;;5.38;;
22922;SDS011;11627;51.322;22.816;2023-07-31T05:10:24;8.32;;;5.20;;
22922;SDS011;11627;51.322;22.816;2023-07-31T05:12:51;7.75;;;5.75;;
22922;SDS011;11627;51.322;22.816;2023-07-31T05:15:16;6.53;;;5.25;;
22922;SDS011;11627;51.322;22.816;2023-07-31T05:17:43;10.00;;;5.45;;
22922;SDS011;11627;51.322;22.816;2023-07-31T05:20:09;9.73;;;5.88;;
22922;SDS011;11627;51.322;22.816;2023-07-31T05:22:37;11.13;;;5.85;;
22922;SDS011;11627;51.322;22.816;2023-07-31T05:25:02;7.20;;;4.72;;
22922;SDS011;11627;51.322;22.816;2023-07-31T05:27:30;10.07;;;5.63;;
22922;SDS011;11627;51.322;22.816;2023-07-31T05:29:57;9.70;;;5.28;;
22922;SDS011;11627;51.322;22.816;2023-07-31T05:32:23;8.68;;;6.00;;
22922;SDS011;11627;51.322;22.816;2023-07-31T05:34:52;9.05;;;5.97;;
22922;SDS011;11627;51.322;22.816;2023-07-31T05:37:20;8.88;;;5.22;;
22922;SDS011;11627;51.322;22.816;2023-07-31T05:39:47;6.78;;;4.82;;
22922;SDS011;11627;51.322;22.816;2023-07-31T05:42:14;6.95;;;4.63;;
22922;SDS011;11627;51.322;22.816;2023-07-31T05:44:41;6.72;;;4.78;;
22922;SDS011;11627;51.322;22.816;2023-07-31T05:47:07;5.63;;;4.78;;
22922;SDS011;11627;51.322;22.816;2023-07-31T05:49:36;8.13;;;4.97;;
22922;SDS011;11627;51.322;22.816;2023-07-31T05:52:02;9.10;;;5.13;;
22922;SDS011;11627;51.322;22.816;2023-07-31T05:54:31;10.07;;;4.57;;
22922;SDS011;11627;51.322;22.816;2023-07-31T05:56:58;5.60;;;4.30;;
22922;SDS011;11627;51.322;22.816;2023-07-31T05:59:24;5.47;;;4.57;;
22922;SDS011;11627;51.322;22.816;2023-07-31T06:01:52;6.90;;;4.13;;
22922;SDS011;11627;51.322;22.816;2023-07-31T06:04:20;5.28;;;4.22;;
22922;SDS011;11627;51.322;22.816;2023-07-31T06:06:45;8.75;;;4.82;;
22922;SDS011;11627;51.322;22.816;2023-07-31T06:09:14;6.13;;;4.35;;
22922;SDS011;11627;51.322;22.816;2023-07-31T06:11:39;7.07;;;4.30;;
22922;SDS011;11627;51.322;22.816;2023-07-31T06:14:05;4.80;;;3.85;;
22922;SDS011;11627;51.322;22.816;2023-07-31T06:16:31;5.22;;;4.25;;
22922;SDS011;11627;51.322;22.816;2023-07-31T06:18:58;8.40;;;4.22;;
22922;SDS011;11627;51.322;22.816;2023-07-31T06:21:25;10.70;;;3.95;;
22922;SDS011;11627;51.322;22.816;2023-07-31T06:23:53;4.63;;;4.00;;
22922;SDS011;11627;51.322;22.816;2023-07-31T06:26:20;11.13;;;3.92;;
22922;SDS011;11627;51.322;22.816;2023-07-31T06:28:48;6.80;;;3.88;;
22922;SDS011;11627;51.322;22.816;2023-07-31T06:31:15;5.68;;;4.10;;
22922;SDS011;11627;51.322;22.816;2023-07-31T06:33:45;5.13;;;3.55;;
22922;SDS011;11627;51.322;22.816;2023-07-31T06:36:12;6.35;;;4.40;;
22922;SDS011;11627;51.322;22.816;2023-07-31T06:38:39;7.35;;;4.40;;
22922;SDS011;11627;51.322;22.816;2023-07-31T06:41:05;7.05;;;4.47;;
22922;SDS011;11627;51.322;22.816;2023-07-31T06:43:32;6.78;;;3.83;;
22922;SDS011;11627;51.322;22.816;2023-07-31T06:46:04;5.65;;;4.00;;
22922;SDS011;11627;51.322;22.816;2023-07-31T06:48:33;5.75;;;4.05;;
22922;SDS011;11627;51.322;22.816;2023-07-31T06:51:00;6.15;;;4.25;;
22922;SDS011;11627;51.322;22.816;2023-07-31T06:53:28;6.57;;;4.75;;
22922;SDS011;11627;51.322;22.816;2023-07-31T06:55:55;7.53;;;4.35;;
22922;SDS011;11627;51.322;22.816;2023-07-31T06:58:22;5.18;;;4.40;;
22922;SDS011;11627;51.322;22.816;2023-07-31T07:00:49;7.35;;;4.47;;
22922;SDS011;11627;51.322;22.816;2023-07-31T07:03:18;6.47;;;4.65;;
22922;SDS011;11627;51.322;22.816;2023-07-31T07:05:45;7.18;;;4.65;;
22922;SDS011;11627;51.322;22.816;2023-07-31T07:08:12;5.95;;;4.65;;
22922;SDS011;11627;51.322;22.816;2023-07-31T07:10:39;5.57;;;4.20;;
22922;SDS011;11627;51.322;22.816;2023-07-31T07:13:05;8.45;;;4.22;;
22922;SDS011;11627;51.322;22.816;2023-07-31T07:15:32;5.55;;;4.20;;
22922;SDS011;11627;51.322;22.816;2023-07-31T07:17:59;6.90;;;4.45;;
22922;SDS011;11627;51.322;22.816;2023-07-31T07:20:26;7.45;;;5.00;;
22922;SDS011;11627;51.322;22.816;2023-07-31T07:22:52;6.88;;;4.75;;
22922;SDS011;11627;51.322;22.816;2023-07-31T07:25:20;8.68;;;4.95;;
22922;SDS011;11627;51.322;22.816;2023-07-31T07:27:47;7.40;;;4.55;;
22922;SDS011;11627;51.322;22.816;2023-07-31T07:30:14;5.88;;;4.82;;
22922;SDS011;11627;51.322;22.816;2023-07-31T07:32:41;5.68;;;3.88;;
22922;SDS011;11627;51.322;22.816;2023-07-31T07:35:07;7.32;;;4.32;;
22922;SDS011;11627;51.322;22.816;2023-07-31T07:37:34;7.05;;;4.75;;
22922;SDS011;11627;51.322;22.816;2023-07-31T07:40:01;8.50;;;4.55;;
22922;SDS011;11627;51.322;22.816;2023-07-31T07:42:28;9.10;;;4.88;;
22922;SDS011;11627;51.322;22.816;2023-07-31T07:44:57;7.18;;;4.60;;
22922;SDS011;11627;51.322;22.816;2023-07-31T07:47:23;5.55;;;4.35;;
22922;SDS011;11627;51.322;22.816;2023-07-31T07:49:52;6.38;;;4.22;;
22922;SDS011;11627;51.322;22.816;2023-07-31T07:52:18;5.47;;;4.00;;
22922;SDS011;11627;51.322;22.816;2023-07-31T07:54:46;7.32;;;4.10;;
22922;SDS011;11627;51.322;22.816;2023-07-31T07:57:13;6.18;;;3.80;;
22922;SDS011;11627;51.322;22.816;2023-07-31T07:59:40;7.07;;;4.03;;
22922;SDS011;11627;51.322;22.816;2023-07-31T08:02:06;6.97;;;3.63;;
22922;SDS011;11627;51.322;22.816;2023-07-31T08:04:32;6.57;;;3.50;;
22922;SDS011;11627;51.322;22.816;2023-07-31T08:06:59;5.65;;;3.72;;
22922;SDS011;11627;51.322;22.816;2023-07-31T08:09:25;6.60;;;3.47;;
22922;SDS011;11627;51.322;22.816;2023-07-31T08:11:52;4.68;;;3.00;;
22922;SDS011;11627;51.322;22.816;2023-07-31T08:14:18;5.03;;;3.28;;
22922;SDS011;11627;51.322;22.816;2023-07-31T08:16:45;9.07;;;3.30;;
22922;SDS011;11627;51.322;22.816;2023-07-31T08:19:13;4.20;;;3.00;;
22922;SDS011;11627;51.322;22.816;2023-07-31T08:21:39;6.55;;;3.80;;
22922;SDS011;11627;51.322;22.816;2023-07-31T08:24:05;7.05;;;3.10;;
22922;SDS011;11627;51.322;22.816;2023-07-31T08:26:30;7.15;;;3.00;;
22922;SDS011;11627;51.322;22.816;2023-07-31T08:28:57;5.00;;;2.85;;
22922;SDS011;11627;51.322;22.816;2023-07-31T08:31:25;3.13;;;2.80;;
22922;SDS011;11627;51.322;22.816;2023-07-31T08:33:52;7.57;;;3.22;;
22922;SDS011;11627;51.322;22.816;2023-07-31T08:36:17;3.80;;;3.17;;
22922;SDS011;11627;51.322;22.816;2023-07-31T08:38:44;3.97;;;2.90;;
22922;SDS011;11627;51.322;22.816;2023-07-31T08:41:11;5.63;;;3.55;;
22922;SDS011;11627;51.322;22.816;2023-07-31T08:43:38;5.30;;;2.72;;
22922;SDS011;11627;51.322;22.816;2023-07-31T08:46:05;4.70;;;3.10;;
22922;SDS011;11627;51.322;22.816;2023-07-31T08:48:32;7.60;;;3.47;;
22922;SDS011;11627;51.322;22.816;2023-07-31T08:50:59;7.45;;;3.03;;
22922;SDS011;11627;51.322;22.816;2023-07-31T08:53:29;5.65;;;3.42;;
22922;SDS011;11627;51.322;22.816;2023-07-31T08:55:56;5.28;;;2.85;;
22922;SDS011;11627;51.322;22.816;2023-07-31T08:58:24;8.00;;;3.05;;
22922;SDS011;11627;51.322;22.816;2023-07-31T09:00:53;6.50;;;2.90;;
22922;SDS011;11627;51.322;22.816;2023-07-31T09:03:22;6.78;;;2.88;;
22922;SDS011;11627;51.322;22.816;2023-07-31T09:05:51;6.57;;;3.60;;
22922;SDS011;11627;51.322;22.816;2023-07-31T09:08:21;6.15;;;3.10;;
22922;SDS011;11627;51.322;22.816;2023-07-31T09:10:48;3.85;;;2.90;;
22922;SDS011;11627;51.322;22.816;2023-07-31T09:13:16;6.05;;;3.05;;
22922;SDS011;11627;51.322;22.816;2023-07-31T09:15:44;4.55;;;3.40;;
22922;SDS011;11627;51.322;22.816;2023-07-31T09:18:13;4.55;;;3.22;;
22922;SDS011;11627;51.322;22.816;2023-07-31T09:20:46;7.57;;;2.75;;
22922;SDS011;11627;51.322;22.816;2023-07-31T09:23:27;3.38;;;2.55;;
22922;SDS011;11627;51.322;22.816;2023-07-31T09:29:07;3.35;;;2.92;;
22922;SDS011;11627;51.322;22.816;2023-07-31T09:31:53;5.53;;;2.83;;
22922;SDS011;11627;51.322;22.816;2023-07-31T09:34:29;10.23;;;3.47;;
22922;SDS011;11627;51.322;22.816;2023-07-31T09:37:04;4.20;;;3.35;;
22922;SDS011;11627;51.322;22.816;2023-07-31T09:39:31;5.35;;;4.13;;
22922;SDS011;11627;51.322;22.816;2023-07-31T09:41:58;5.05;;;3.50;;
22922;SDS011;11627;51.322;22.816;2023-07-31T09:47:24;16.77;;;5.07;;
22922;SDS011;11627;51.322;22.816;2023-07-31T09:49:51;9.73;;;4.30;;
22922;SDS011;11627;51.322;22.816;2023-07-31T09:52:19;7.60;;;4.65;;
22922;SDS011;11627;51.322;22.816;2023-07-31T09:54:46;6.70;;;3.65;;
22922;SDS011;11627;51.322;22.816;2023-07-31T09:57:13;10.27;;;5.47;;
22922;SDS011;11627;51.322;22.816;2023-07-31T09:59:42;10.07;;;4.80;;
22922;SDS011;11627;51.322;22.816;2023-07-31T10:02:09;5.97;;;4.15;;
22922;SDS011;11627;51.322;22.816;2023-07-31T10:04:41;19.92;;;4.80;;
22922;SDS011;11627;51.322;22.816;2023-07-31T10:07:10;6.40;;;4.18;;
22922;SDS011;11627;51.322;22.816;2023-07-31T10:09:39;5.00;;;3.72;;
22922;SDS011;11627;51.322;22.816;2023-07-31T10:12:06;4.95;;;3.17;;
22922;SDS011;11627;51.322;22.816;2023-07-31T10:14:38;6.65;;;2.75;;
22922;SDS011;11627;51.322;22.816;2023-07-31T10:17:09;5.35;;;2.90;;
22922;SDS011;11627;51.322;22.816;2023-07-31T10:19:37;4.15;;;3.00;;
22922;SDS011;11627;51.322;22.816;2023-07-31T10:22:06;4.18;;;2.83;;
22922;SDS011;11627;51.322;22.816;2023-07-31T10:24:36;8.20;;;2.70;;
22922;SDS011;11627;51.322;22.816;2023-07-31T10:27:03;5.63;;;3.28;;
22922;SDS011;11627;51.322;22.816;2023-07-31T10:29:31;5.20;;;2.90;;
22922;SDS011;11627;51.322;22.816;2023-07-31T10:32:00;3.30;;;2.80;;
22922;SDS011;11627;51.322;22.816;2023-07-31T10:34:29;3.35;;;2.85;;
22922;SDS011;11627;51.322;22.816;2023-07-31T10:42:56;7.47;;;2.35;;
22922;SDS011;11627;51.322;22.816;2023-07-31T10:45:36;4.65;;;2.50;;
22922;SDS011;11627;51.322;22.816;2023-07-31T10:48:07;5.82;;;2.42;;
22922;SDS011;11627;51.322;22.816;2023-07-31T10:50:40;6.07;;;2.30;;
22922;SDS011;11627;51.322;22.816;2023-07-31T10:56:05;2.30;;;2.03;;
22922;SDS011;11627;51.322;22.816;2023-07-31T10:58:34;5.30;;;2.20;;
22922;SDS011;11627;51.322;22.816;2023-07-31T11:01:05;3.92;;;1.70;;
22922;SDS011;11627;51.322;22.816;2023-07-31T11:06:20;2.17;;;1.77;;
22922;SDS011;11627;51.322;22.816;2023-07-31T11:08:47;4.63;;;1.90;;
22922;SDS011;11627;51.322;22.816;2023-07-31T11:11:17;3.92;;;2.17;;
22922;SDS011;11627;51.322;22.816;2023-07-31T11:13:51;2.65;;;2.22;;
22922;SDS011;11627;51.322;22.816;2023-07-31T11:16:20;2.35;;;2.10;;
22922;SDS011;11627;51.322;22.816;2023-07-31T11:18:51;2.40;;;2.20;;
22922;SDS011;11627;51.322;22.816;2023-07-31T11:21:18;2.28;;;2.00;;
22922;SDS011;11627;51.322;22.816;2023-07-31T11:23:52;4.38;;;2.42;;
22922;SDS011;11627;51.322;22.816;2023-07-31T11:26:21;3.50;;;2.33;;
22922;SDS011;11627;51.322;22.816;2023-07-31T11:28:49;7.47;;;2.28;;
22922;SDS011;11627;51.322;22.816;2023-07-31T11:31:17;3.33;;;2.50;;
22922;SDS011;11627;51.322;22.816;2023-07-31T11:33:45;2.70;;;2.20;;
22922;SDS011;11627;51.322;22.816;2023-07-31T11:36:15;3.97;;;2.50;;
22922;SDS011;11627;51.322;22.816;2023-07-31T11:38:43;5.25;;;2.40;;
22922;SDS011;11627;51.322;22.816;2023-07-31T11:41:13;3.40;;;2.33;;
22922;SDS011;11627;51.322;22.816;2023-07-31T11:43:42;2.63;;;2.20;;
22922;SDS011;11627;51.322;22.816;2023-07-31T11:46:12;4.55;;;2.30;;
22922;SDS011;11627;51.322;22.816;2023-07-31T11:48:41;2.60;;;2.40;;
22922;SDS011;11627;51.322;22.816;2023-07-31T11:51:10;3.65;;;2.17;;
22922;SDS011;11627;51.322;22.816;2023-07-31T11:53:50;3.90;;;2.30;;
22922;SDS011;11627;51.322;22.816;2023-07-31T11:56:20;4.30;;;2.08;;
22922;SDS011;11627;51.322;22.816;2023-07-31T11:58:49;3.78;;;2.10;;
22922;SDS011;11627;51.322;22.816;2023-07-31T12:01:23;2.47;;;2.28;;
22922;SDS011;11627;51.322;22.816;2023-07-31T12:03:50;5.22;;;2.15;;
22922;SDS011;11627;51.322;22.816;2023-07-31T12:06:18;4.82;;;2.00;;
22922;SDS011;11627;51.322;22.816;2023-07-31T12:08:47;5.20;;;2.40;;
22922;SDS011;11627;51.322;22.816;2023-07-31T12:11:15;7.05;;;2.30;;
22922;SDS011;11627;51.322;22.816;2023-07-31T12:13:43;4.32;;;2.50;;
22922;SDS011;11627;51.322;22.816;2023-07-31T12:16:10;6.70;;;1.95;;
22922;SDS011;11627;51.322;22.816;2023-07-31T12:18:38;2.05;;;1.85;;
22922;SDS011;11627;51.322;22.816;2023-07-31T12:21:06;3.33;;;2.00;;
22922;SDS011;11627;51.322;22.816;2023-07-31T12:23:35;2.55;;;2.05;;
22922;SDS011;11627;51.322;22.816;2023-07-31T12:26:11;2.75;;;2.08;;
22922;SDS011;11627;51.322;22.816;2023-07-31T12:28:40;2.33;;;2.08;;
22922;SDS011;11627;51.322;22.816;2023-07-31T12:31:17;4.53;;;2.15;;
22922;SDS011;11627;51.322;22.816;2023-07-31T12:33:49;5.47;;;2.42;;
22922;SDS011;11627;51.322;22.816;2023-07-31T12:36:17;3.63;;;2.30;;
22922;SDS011;11627;51.322;22.816;2023-07-31T12:38:47;2.03;;;1.85;;
22922;SDS011;11627;51.322;22.816;2023-07-31T12:41:16;2.42;;;2.10;;
22922;SDS011;11627;51.322;22.816;2023-07-31T12:43:44;3.17;;;2.20;;
22922;SDS011;11627;51.322;22.816;2023-07-31T12:46:11;2.75;;;2.08;;
22922;SDS011;11627;51.322;22.816;2023-07-31T12:48:38;4.03;;;2.33;;
22922;SDS011;11627;51.322;22.816;2023-07-31T12:51:06;2.45;;;2.10;;
22922;SDS011;11627;51.322;22.816;2023-07-31T12:53:33;5.25;;;2.42;;
22922;SDS011;11627;51.322;22.816;2023-07-31T12:56:00;5.85;;;2.33;;
22922;SDS011;11627;51.322;22.816;2023-07-31T12:58:28;3.20;;;2.50;;
22922;SDS011;11627;51.322;22.816;2023-07-31T13:00:55;5.32;;;2.40;;
22922;SDS011;11627;51.322;22.816;2023-07-31T13:03:21;2.95;;;2.13;;
22922;SDS011;11627;51.322;22.816;2023-07-31T13:05:48;3.70;;;2.33;;
22922;SDS011;11627;51.322;22.816;2023-07-31T13:08:15;3.50;;;2.70;;
22922;SDS011;11627;51.322;22.816;2023-07-31T13:10:43;3.08;;;2.30;;
22922;SDS011;11627;51.322;22.816;2023-07-31T13:13:11;5.30;;;2.60;;
22922;SDS011;11627;51.322;22.816;2023-07-31T13:15:38;3.90;;;2.60;;
22922;SDS011;11627;51.322;22.816;2023-07-31T13:18:05;3.08;;;2.28;;
22922;SDS011;11627;51.322;22.816;2023-07-31T13:20:30;4.57;;;2.30;;
22922;SDS011;11627;51.322;22.816;2023-07-31T13:22:57;5.13;;;2.03;;
22922;SDS011;11627;51.322;22.816;2023-07-31T13:25:24;3.30;;;2.13;;
22922;SDS011;11627;51.322;22.816;2023-07-31T13:27:51;3.65;;;2.00;;
22922;SDS011;11627;51.322;22.816;2023-07-31T13:30:18;4.25;;;2.38;;
22922;SDS011;11627;51.322;22.816;2023-07-31T13:32:45;5.35;;;2.38;;
22922;SDS011;11627;51.322;22.816;2023-07-31T13:35:10;4.70;;;1.75;;
22922;SDS011;11627;51.322;22.816;2023-07-31T13:37:38;3.85;;;2.00;;
22922;SDS011;11627;51.322;22.816;2023-07-31T13:40:05;4.57;;;1.98;;
22922;SDS011;11627;51.322;22.816;2023-07-31T13:42:33;2.83;;;2.05;;
22922;SDS011;11627;51.322;22.816;2023-07-31T13:45:00;3.88;;;2.33;;
22922;SDS011;11627;51.322;22.816;2023-07-31T13:47:26;2.92;;;2.15;;
22922;SDS011;11627;51.322;22.816;2023-07-31T13:49:53;4.07;;;2.10;;
22922;SDS011;11627;51.322;22.816;2023-07-31T13:52:20;3.70;;;2.22;;
22922;SDS011;11627;51.322;22.816;2023-07-31T13:54:47;2.00;;;1.83;;
22922;SDS011;11627;51.322;22.816;2023-07-31T13:57:14;4.15;;;2.25;;
22922;SDS011;11627;51.322;22.816;2023-07-31T13:59:41;3.47;;;2.40;;
22922;SDS011;11627;51.322;22.816;2023-07-31T14:02:08;2.83;;;2.13;;
22922;SDS011;11627;51.322;22.816;2023-07-31T14:04:34;3.20;;;2.22;;
22922;SDS011;11627;51.322;22.816;2023-07-31T14:07:01;3.38;;;2.17;;
22922;SDS011;11627;51.322;22.816;2023-07-31T14:09:28;4.72;;;2.50;;
22922;SDS011;11627;51.322;22.816;2023-07-31T14:11:55;3.53;;;2.20;;
22922;SDS011;11627;51.322;22.816;2023-07-31T14:14:22;3.50;;;2.35;;
22922;SDS011;11627;51.322;22.816;2023-07-31T14:16:49;3.05;;;2.13;;
22922;SDS011;11627;51.322;22.816;2023-07-31T14:19:16;2.50;;;2.00;;
22922;SDS011;11627;51.322;22.816;2023-07-31T14:21:43;5.60;;;2.08;;
22922;SDS011;11627;51.322;22.816;2023-07-31T14:24:11;3.28;;;1.73;;
22922;SDS011;11627;51.322;22.816;2023-07-31T14:26:38;3.05;;;1.80;;
22922;SDS011;11627;51.322;22.816;2023-07-31T14:29:05;3.95;;;2.13;;
22922;SDS011;11627;51.322;22.816;2023-07-31T14:31:32;2.33;;;1.70;;
22922;SDS011;11627;51.322;22.816;2023-07-31T14:33:59;1.92;;;1.60;;
22922;SDS011;11627;51.322;22.816;2023-07-31T14:36:27;2.30;;;2.10;;
22922;SDS011;11627;51.322;22.816;2023-07-31T14:38:53;5.65;;;2.10;;
22922;SDS011;11627;51.322;22.816;2023-07-31T14:41:21;7.35;;;2.20;;
22922;SDS011;11627;51.322;22.816;2023-07-31T14:43:47;3.00;;;2.03;;
22922;SDS011;11627;51.322;22.816;2023-07-31T14:46:14;4.93;;;1.83;;
22922;SDS011;11627;51.322;22.816;2023-07-31T14:48:41;4.07;;;2.53;;
22922;SDS011;11627;51.322;22.816;2023-07-31T14:51:10;4.57;;;2.97;;
22922;SDS011;11627;51.322;22.816;2023-07-31T14:53:37;3.20;;;2.70;;
22922;SDS011;11627;51.322;22.816;2023-07-31T14:56:05;6.93;;;3.00;;
22922;SDS011;11627;51.322;22.816;2023-07-31T14:58:34;5.20;;;2.85;;
22922;SDS011;11627;51.322;22.816;2023-07-31T15:01:00;5.65;;;3.05;;
22922;SDS011;11627;51.322;22.816;2023-07-31T15:03:27;3.40;;;3.10;;
22922;SDS011;11627;51.322;22.816;2023-07-31T15:05:55;5.90;;;2.80;;
22922;SDS011;11627;51.322;22.816;2023-07-31T15:08:22;2.85;;;2.63;;